Aérodrome :
LOGIN :

S'inscrire | Disclaimer

   EN    FR    IT 

 










Légende :    VFR   VFR Marginal   IFR   IFR Intensif   IFR Très Intensif
Visi : 
Plafond : 
>= 8 km
>= 3000ft
5 à 8 km
1000 à 3000 ft
1500m à 5 km
500 à 1000 ft
800 à 1500m
200 à 500 ft
< 800m
< 200 ft
Symboles :   Orages  Brouillard  Fortes neiges  Fortes précipitations  Vent > 20 kt
SIGMETs :   Divers  Orages  Givrage  Turbulence  Onde Orograph.  Cendres Volcan.






- Altitude de l'aérodrome : 0 ft
- Code IATA : SOG


ENSG - Sogndal

DERNIER METAR :
  • 191820Z VRB01KT 9999 SCT038 M03/M05 Q1002 RMK WIND 3806FT 18009KT

METARs EXPIRÉS :
  • 191750Z VRB02KT 9999 FEW012 SCT038 M01/M03 Q1002 RMK WIND 3806FT 18011KT
  • 191722Z 23003KT 9999 FEW012 SCT038 M01/M03 Q1002 RMK WIND 3806FT 19008KT
  • 191650Z 26007KT 9999 FEW012 SCT038 01/M03 Q1002 RMK WIND 3806FT 21005KT
  • 191620Z 26008KT 9999 FEW/// BKN038 01/M03 Q1002 RMK WIND 3806FT 20006KT
  • 191550Z 26006KT 9999 FEW/// BKN038 01/M02 Q1002 RMK WIND 3806FT 21007KT

TAF N/A



MET'MAP, la Météo Aéronautique d'un coup d'oeil ! - Copyright ORBIFLY Décembre 2007 - Disclaimer

ORBIFLY MET'MAP TEAM :

Programmation & Développement : Alexandra Zaïnal
Sur une idée originale de : Baudouin d'Aumeries
Assistance à la programmation : Marc-Olivier Méhu
Soutien technique & logistique : Manuel Goepfert

Contact : metmap@orbifly.com




SOURCES & CREDITS :

   NOAA